Time,TemperatureF,DewpointF,PressureIn,WindDirection,WindDirectionDegrees,WindSpeedMPH,WindSpeedGustMPH,Humidity,HourlyPrecipIn,Conditions,Clouds,dailyrainin,SoftwareType,DateUTC
2013-05-07 00:01:00,54.4,50.9,30.15,NE,45,2.0,6.0,88,0.00,,,0.00,Weather View 32 v70,2013-05-07 04:01:00,
2013-05-07 00:06:00,54.8,54.0,30.15,West,270,2.0,6.0,97,0.00,,,0.00,Weather View 32 v70,2013-05-07 04:06:00,
2013-05-07 00:11:00,54.5,53.7,30.15,NW,315,1.0,6.0,97,0.00,,,0.00,Weather View 32 v70,2013-05-07 04:11:00,
2013-05-07 00:16:00,54.5,53.7,30.15,SSW,202,0.0,6.0,97,0.00,,,0.00,Weather View 32 v70,2013-05-07 04:16:00,
2013-05-07 00:21:00,54.6,53.8,30.15,WNW,292,2.0,6.0,97,0.00,,,0.00,Weather View 32 v70,2013-05-07 04:21:00,
2013-05-07 00:26:00,54.5,53.7,30.15,WNW,292,2.0,6.0,97,0.00,,,0.00,Weather View 32 v70,2013-05-07 04:26:00,
2013-05-07 00:31:00,54.5,53.7,30.15,WSW,247,4.0,6.0,97,0.00,,,0.00,Weather View 32 v70,2013-05-07 04:31:00,
2013-05-07 00:36:00,54.4,53.6,30.15,NNW,337,2.0,6.0,97,0.00,,,0.00,Weather View 32 v70,2013-05-07 04:36:00,
2013-05-07 00:41:00,54.1,53.3,30.15,WNW,292,1.0,6.0,97,0.00,,,0.00,Weather View 32 v70,2013-05-07 04:41:00,
2013-05-07 00:46:00,54.1,53.3,30.15,WNW,292,1.0,6.0,97,0.00,,,0.00,Weather View 32 v70,2013-05-07 04:46:00,
2013-05-07 00:51:00,53.9,53.1,30.15,SE,135,1.0,6.0,97,0.00,,,0.00,Weather View 32 v70,2013-05-07 04:51:00,
2013-05-07 00:56:00,53.6,52.8,30.15,NW,315,1.0,6.0,97,0.00,,,0.00,Weather View 32 v70,2013-05-07 04:56:00,
2013-05-07 01:01:00,53.4,52.6,30.15,WNW,292,2.0,6.0,97,0.00,,,0.00,Weather View 32 v70,2013-05-07 05:01:00,
2013-05-07 01:06:00,53.5,52.7,30.15,SSE,157,0.0,6.0,97,0.00,,,0.00,Weather View 32 v70,2013-05-07 05:06:00,
2013-05-07 01:11:00,53.3,52.5,30.15,NW,315,2.0,6.0,97,0.00,,,0.00,Weather View 32 v70,2013-05-07 05:11:00,
2013-05-07 01:16:00,53.2,52.4,30.15,NW,315,2.0,6.0,97,0.00,,,0.00,Weather View 32 v70,2013-05-07 05:16:00,
2013-05-07 01:21:00,52.9,52.1,30.15,NW,315,0.0,6.0,97,0.00,,,0.00,Weather View 32 v70,2013-05-07 05:21:00,
2013-05-07 01:26:00,52.7,51.9,30.15,West,270,1.0,4.0,97,0.00,,,0.00,Weather View 32 v70,2013-05-07 05:26:00,
2013-05-07 01:31:00,52.6,51.8,30.14,WNW,292,0.0,4.0,97,0.00,,,0.00,Weather View 32 v70,2013-05-07 05:31:00,
2013-05-07 01:36:00,52.3,51.5,30.14,WNW,292,0.0,4.0,97,0.00,,,0.00,Weather View 32 v70,2013-05-07 05:36:00,
2013-05-07 01:41:00,52.2,51.4,30.14,WNW,292,2.0,4.0,97,0.00,,,0.00,Weather View 32 v70,2013-05-07 05:41:00,
2013-05-07 01:46:00,52.0,51.2,30.14,ENE,67,0.0,4.0,97,0.00,,,0.00,Weather View 32 v70,2013-05-07 05:46:00,
2013-05-07 01:51:00,51.9,51.1,30.14,North,360,2.0,4.0,97,0.00,,,0.00,Weather View 32 v70,2013-05-07 05:51:00,
2013-05-07 01:56:00,51.9,51.1,30.14,SSE,157,0.0,4.0,97,0.00,,,0.00,Weather View 32 v70,2013-05-07 05:56:00,
2013-05-07 02:01:00,51.7,50.9,30.13,NW,315,0.0,4.0,97,0.00,,,0.00,Weather View 32 v70,2013-05-07 06:01:00,
2013-05-07 02:06:00,51.6,50.8,30.13,NE,45,1.0,4.0,97,0.00,,,0.00,Weather View 32 v70,2013-05-07 06:06:00,
2013-05-07 02:11:00,51.3,50.5,30.13,NNE,22,1.0,4.0,97,0.00,,,0.00,Weather View 32 v70,2013-05-07 06:11:00,
2013-05-07 02:16:00,51.1,50.3,30.13,NW,315,0.0,4.0,97,0.00,,,0.00,Weather View 32 v70,2013-05-07 06:16:00,
2013-05-07 02:21:00,50.9,50.1,30.13,NNW,337,0.0,3.0,97,0.00,,,0.00,Weather View 32 v70,2013-05-07 06:21:00,
2013-05-07 02:26:00,50.7,49.9,30.13,NNW,337,0.0,3.0,97,0.00,,,0.00,Weather View 32 v70,2013-05-07 06:26:00,
2013-05-07 02:32:00,50.6,49.8,30.13,NNW,337,0.0,3.0,97,0.00,,,0.00,Weather View 32 v70,2013-05-07 06:32:00,
2013-05-07 02:37:00,50.2,49.4,30.13,East,90,0.0,3.0,97,0.00,,,0.00,Weather View 32 v70,2013-05-07 06:37:00,
2013-05-07 02:42:00,50.0,49.2,30.13,SSW,202,2.0,2.0,97,0.00,,,0.00,Weather View 32 v70,2013-05-07 06:42:00,
2013-05-07 02:47:00,49.7,48.9,30.13,SSW,202,0.0,2.0,97,0.00,,,0.00,Weather View 32 v70,2013-05-07 06:47:00,
2013-05-07 02:52:00,49.4,48.6,30.13,SSE,157,0.0,2.0,97,0.00,,,0.00,Weather View 32 v70,2013-05-07 06:52:00,
2013-05-07 02:57:00,49.0,48.2,30.13,SSE,157,0.0,2.0,97,0.00,,,0.00,Weather View 32 v70,2013-05-07 06:57:00,
2013-05-07 03:02:00,48.8,48.0,30.13,SSE,157,0.0,2.0,97,0.00,,,0.00,Weather View 32 v70,2013-05-07 07:02:00,
2013-05-07 03:07:00,48.7,47.9,30.13,SSE,157,0.0,2.0,97,0.00,,,0.00,Weather View 32 v70,2013-05-07 07:07:00,
2013-05-07 03:12:00,48.4,47.6,30.13,SSE,157,0.0,2.0,97,0.00,,,0.00,Weather View 32 v70,2013-05-07 07:12:00,
2013-05-07 03:17:00,48.5,47.7,30.13,SSW,202,0.0,2.0,97,0.00,,,0.00,Weather View 32 v70,2013-05-07 07:17:00,
2013-05-07 03:22:00,48.2,47.4,30.13,SSW,202,0.0,2.0,97,0.00,,,0.00,Weather View 32 v70,2013-05-07 07:22:00,
2013-05-07 03:27:00,47.9,47.1,30.13,SSW,202,0.0,2.0,97,0.00,,,0.00,Weather View 32 v70,2013-05-07 07:27:00,
2013-05-07 03:32:00,47.9,47.1,30.13,South,180,1.0,2.0,97,0.00,,,0.00,Weather View 32 v70,2013-05-07 07:32:00,
2013-05-07 03:37:00,47.7,46.9,30.13,South,180,0.0,2.0,97,0.00,,,0.00,Weather View 32 v70,2013-05-07 07:37:00,
2013-05-07 03:42:00,47.7,46.9,30.13,South,180,0.0,2.0,97,0.00,,,0.00,Weather View 32 v70,2013-05-07 07:42:00,
2013-05-07 03:47:00,47.7,46.9,30.13,SSW,202,0.0,2.0,97,0.00,,,0.00,Weather View 32 v70,2013-05-07 07:47:00,
2013-05-07 03:52:00,47.7,46.9,30.13,SSW,202,0.0,2.0,97,0.00,,,0.00,Weather View 32 v70,2013-05-07 07:52:00,
2013-05-07 03:57:00,47.8,47.0,30.13,ENE,67,0.0,2.0,97,0.00,,,0.00,Weather View 32 v70,2013-05-07 07:57:00,
2013-05-07 04:02:00,47.9,47.1,30.13,ESE,112,0.0,2.0,97,0.00,,,0.00,Weather View 32 v70,2013-05-07 08:02:00,
2013-05-07 04:07:00,47.9,47.1,30.13,South,180,0.0,2.0,97,0.00,,,0.00,Weather View 32 v70,2013-05-07 08:07:00,
2013-05-07 04:12:00,47.9,47.1,30.13,SSW,202,0.0,2.0,97,0.00,,,0.00,Weather View 32 v70,2013-05-07 08:12:00,
2013-05-07 04:17:00,48.2,47.4,30.13,WSW,247,0.0,2.0,97,0.00,,,0.00,Weather View 32 v70,2013-05-07 08:17:00,
2013-05-07 04:22:00,48.2,47.4,30.13,WSW,247,0.0,2.0,97,0.00,,,0.00,Weather View 32 v70,2013-05-07 08:22:00,
2013-05-07 04:27:00,47.9,47.1,30.13,WSW,247,0.0,2.0,97,0.00,,,0.00,Weather View 32 v70,2013-05-07 08:27:00,
2013-05-07 04:32:00,47.9,47.1,30.13,WNW,292,0.0,2.0,97,0.00,,,0.00,Weather View 32 v70,2013-05-07 08:32:00,
2013-05-07 04:37:00,47.8,47.0,30.13,SE,135,0.0,2.0,97,0.00,,,0.00,Weather View 32 v70,2013-05-07 08:37:00,
2013-05-07 04:42:00,47.7,46.9,30.13,NNE,22,0.0,2.0,97,0.00,,,0.00,Weather View 32 v70,2013-05-07 08:42:00,
2013-05-07 04:47:00,47.5,46.7,30.13,NNE,22,0.0,2.0,97,0.00,,,0.00,Weather View 32 v70,2013-05-07 08:47:00,
2013-05-07 04:52:00,47.2,46.4,30.13,SE,135,0.0,2.0,97,0.00,,,0.00,Weather View 32 v70,2013-05-07 08:52:00,
2013-05-07 04:57:00,47.1,46.3,30.13,SE,135,0.0,2.0,97,0.00,,,0.00,Weather View 32 v70,2013-05-07 08:57:00,
2013-05-07 05:02:00,47.0,46.2,30.13,SE,135,0.0,2.0,97,0.00,,,0.00,Weather View 32 v70,2013-05-07 09:02:00,
2013-05-07 05:07:00,47.1,46.3,30.13,East,90,0.0,2.0,97,0.00,,,0.00,Weather View 32 v70,2013-05-07 09:07:00,
2013-05-07 05:12:00,46.8,46.0,30.13,SE,135,0.0,2.0,97,0.00,,,0.00,Weather View 32 v70,2013-05-07 09:12:00,
2013-05-07 05:17:00,46.9,46.1,30.13,SSE,157,0.0,2.0,97,0.00,,,0.00,Weather View 32 v70,2013-05-07 09:17:00,
2013-05-07 05:22:00,46.9,46.1,30.13,South,180,2.0,2.0,97,0.00,,,0.00,Weather View 32 v70,2013-05-07 09:22:00,
2013-05-07 05:27:00,46.8,46.0,30.13,South,180,0.0,2.0,97,0.00,,,0.00,Weather View 32 v70,2013-05-07 09:27:00,
2013-05-07 05:32:00,46.8,46.0,30.13,South,180,0.0,2.0,97,0.00,,,0.00,Weather View 32 v70,2013-05-07 09:32:00,
2013-05-07 05:37:00,46.8,46.0,30.13,South,180,0.0,2.0,97,0.00,,,0.00,Weather View 32 v70,2013-05-07 09:37:00,
2013-05-07 05:42:00,47.1,46.3,30.13,South,180,1.0,2.0,97,0.00,,,0.00,Weather View 32 v70,2013-05-07 09:42:00,
2013-05-07 05:47:00,47.2,46.4,30.13,South,180,1.0,2.0,97,0.00,,,0.00,Weather View 32 v70,2013-05-07 09:47:00,
2013-05-07 05:52:00,47.3,46.5,30.13,South,180,1.0,2.0,97,0.00,,,0.00,Weather View 32 v70,2013-05-07 09:52:00,
2013-05-07 05:57:00,47.5,46.7,30.13,South,180,0.0,2.0,97,0.00,,,0.00,Weather View 32 v70,2013-05-07 09:57:00,
2013-05-07 06:02:00,47.7,46.9,30.13,South,180,1.0,2.0,97,0.00,,,0.00,Weather View 32 v70,2013-05-07 10:02:00,
2013-05-07 06:07:00,47.9,47.1,30.13,South,180,0.0,2.0,97,0.00,,,0.00,Weather View 32 v70,2013-05-07 10:07:00,
2013-05-07 06:12:00,48.3,47.5,30.14,South,180,0.0,2.0,97,0.00,,,0.00,Weather View 32 v70,2013-05-07 10:12:00,
2013-05-07 06:17:00,48.9,48.1,30.14,SSW,202,0.0,3.0,97,0.00,,,0.00,Weather View 32 v70,2013-05-07 10:17:00,
2013-05-07 06:22:00,49.6,48.8,30.14,South,180,0.0,3.0,97,0.00,,,0.00,Weather View 32 v70,2013-05-07 10:22:00,
2013-05-07 06:27:00,50.3,49.5,30.15,NNW,337,0.0,3.0,97,0.00,,,0.00,Weather View 32 v70,2013-05-07 10:27:00,
2013-05-07 06:32:00,50.8,50.0,30.15,SE,135,0.0,3.0,97,0.00,,,0.00,Weather View 32 v70,2013-05-07 10:32:00,
2013-05-07 06:37:00,51.3,50.5,30.15,NNE,22,0.0,3.0,97,0.00,,,0.00,Weather View 32 v70,2013-05-07 10:37:00,
2013-05-07 06:42:00,51.9,51.1,30.15,SSW,202,0.0,3.0,97,0.00,,,0.00,Weather View 32 v70,2013-05-07 10:42:00,
2013-05-07 06:47:00,52.7,51.9,30.15,NW,315,0.0,3.0,97,0.00,,,0.00,Weather View 32 v70,2013-05-07 10:47:00,
2013-05-07 06:52:00,53.4,52.6,30.16,SSE,157,0.0,3.0,97,0.00,,,0.00,Weather View 32 v70,2013-05-07 10:52:00,
2013-05-07 06:57:00,53.9,53.1,30.16,SW,225,0.0,4.0,97,0.00,,,0.00,Weather View 32 v70,2013-05-07 10:57:00,
2013-05-07 07:02:00,54.3,53.5,30.16,SW,225,1.0,4.0,97,0.00,,,0.00,Weather View 32 v70,2013-05-07 11:02:00,
2013-05-07 07:07:00,54.7,53.9,30.17,WSW,247,0.0,4.0,97,0.00,,,0.00,Weather View 32 v70,2013-05-07 11:07:00,
2013-05-07 07:12:00,55.1,54.3,30.17,WSW,247,0.0,4.0,97,0.00,,,0.00,Weather View 32 v70,2013-05-07 11:12:00,
2013-05-07 07:17:00,55.6,54.8,30.17,SW,225,0.0,4.0,97,0.00,,,0.00,Weather View 32 v70,2013-05-07 11:17:00,
2013-05-07 07:22:00,55.6,54.8,30.17,WNW,292,2.0,4.0,97,0.00,,,0.00,Weather View 32 v70,2013-05-07 11:22:00,
2013-05-07 07:27:00,55.9,55.1,30.17,WNW,292,0.0,4.0,97,0.00,,,0.00,Weather View 32 v70,2013-05-07 11:27:00,
2013-05-07 07:32:00,56.3,55.5,30.17,WSW,247,2.0,4.0,97,0.00,,,0.00,Weather View 32 v70,2013-05-07 11:32:00,
2013-05-07 07:37:00,56.5,55.7,30.17,WNW,292,2.0,6.0,97,0.00,,,0.00,Weather View 32 v70,2013-05-07 11:37:00,
2013-05-07 07:42:00,56.9,56.1,30.17,NW,315,2.0,6.0,97,0.00,,,0.00,Weather View 32 v70,2013-05-07 11:42:00,
2013-05-07 07:47:00,57.2,56.4,30.18,NW,315,2.0,6.0,97,0.00,,,0.00,Weather View 32 v70,2013-05-07 11:47:00,
2013-05-07 07:52:00,57.3,56.5,30.18,WSW,247,0.0,6.0,97,0.00,,,0.00,Weather View 32 v70,2013-05-07 11:52:00,
2013-05-07 07:57:00,57.6,56.8,30.17,WSW,247,1.0,6.0,97,0.00,,,0.00,Weather View 32 v70,2013-05-07 11:57:00,
2013-05-07 08:02:00,57.9,57.1,30.18,West,270,2.0,6.0,97,0.00,,,0.00,Weather View 32 v70,2013-05-07 12:02:00,
2013-05-07 08:07:00,58.5,57.9,30.18,West,270,2.0,6.0,98,0.00,,,0.00,Weather View 32 v70,2013-05-07 12:07:00,
2013-05-07 08:12:00,59.1,58.5,30.18,WNW,292,4.0,6.0,98,0.00,,,0.00,Weather View 32 v70,2013-05-07 12:12:00,
2013-05-07 08:17:00,59.7,59.1,30.18,WNW,292,1.0,6.0,98,0.00,,,0.00,Weather View 32 v70,2013-05-07 12:17:00,
2013-05-07 08:22:00,59.9,59.3,30.19,WNW,292,1.0,6.0,98,0.00,,,0.00,Weather View 32 v70,2013-05-07 12:22:00,
2013-05-07 08:27:00,60.2,59.6,30.19,WNW,292,2.0,6.0,98,0.00,,,0.00,Weather View 32 v70,2013-05-07 12:27:00,
2013-05-07 08:32:00,60.4,59.8,30.19,NW,315,2.0,6.0,98,0.00,,,0.00,Weather View 32 v70,2013-05-07 12:32:00,
2013-05-07 08:37:00,60.8,60.2,30.19,West,270,2.0,5.0,98,0.00,,,0.00,Weather View 32 v70,2013-05-07 12:37:00,
2013-05-07 08:42:00,61.1,56.2,30.19,WNW,292,2.0,6.0,84,0.00,,,0.00,Weather View 32 v70,2013-05-07 12:42:00,
2013-05-07 08:47:00,61.4,54.5,30.19,WNW,292,2.0,6.0,78,0.00,,,0.00,Weather View 32 v70,2013-05-07 12:47:00,
2013-05-07 08:52:00,62.0,54.7,30.19,NW,315,1.0,6.0,77,0.00,,,0.00,Weather View 32 v70,2013-05-07 12:52:00,
2013-05-07 08:57:00,62.5,52.6,30.19,WSW,247,3.0,6.0,70,0.00,,,0.00,Weather View 32 v70,2013-05-07 12:57:00,
2013-05-07 09:02:00,63.1,52.7,30.19,West,270,1.0,6.0,69,0.00,,,0.00,Weather View 32 v70,2013-05-07 13:02:00,
2013-05-07 09:07:00,63.7,50.0,30.20,West,270,1.0,6.0,61,0.00,,,0.00,Weather View 32 v70,2013-05-07 13:07:00,
2013-05-07 09:12:00,64.2,50.9,30.20,NNW,337,2.0,6.0,62,0.00,,,0.00,Weather View 32 v70,2013-05-07 13:12:00,
2013-05-07 09:17:00,64.9,50.2,30.20,NW,315,1.0,6.0,59,0.00,,,0.00,Weather View 32 v70,2013-05-07 13:17:00,
2013-05-07 09:22:00,65.1,51.7,30.20,West,270,2.0,6.0,62,0.00,,,0.00,Weather View 32 v70,2013-05-07 13:22:00,
2013-05-07 09:27:00,65.1,51.3,30.20,West,270,4.0,6.0,61,0.00,,,0.00,Weather View 32 v70,2013-05-07 13:27:00,
2013-05-07 09:32:00,65.2,50.0,30.20,West,270,1.0,6.0,58,0.00,,,0.00,Weather View 32 v70,2013-05-07 13:32:00,
2013-05-07 09:37:00,66.1,48.9,30.20,WNW,292,3.0,6.0,54,0.00,,,0.00,Weather View 32 v70,2013-05-07 13:37:00,
2013-05-07 09:42:00,66.9,51.1,30.21,NNW,337,2.0,5.0,57,0.00,,,0.00,Weather View 32 v70,2013-05-07 13:42:00,
2013-05-07 09:47:00,67.2,52.3,30.21,WNW,292,1.0,5.0,59,0.00,,,0.00,Weather View 32 v70,2013-05-07 13:47:00,
2013-05-07 09:52:00,67.8,51.5,30.21,NW,315,2.0,5.0,56,0.00,,,0.00,Weather View 32 v70,2013-05-07 13:52:00,
2013-05-07 09:57:00,67.4,52.5,30.20,NW,315,2.0,5.0,59,0.00,,,0.00,Weather View 32 v70,2013-05-07 13:57:00,
2013-05-07 10:02:00,67.6,52.7,30.20,WNW,292,4.0,5.0,59,0.00,,,0.00,Weather View 32 v70,2013-05-07 14:02:00,
2013-05-07 10:07:00,67.6,51.8,30.20,WNW,292,2.0,5.0,57,0.00,,,0.00,Weather View 32 v70,2013-05-07 14:07:00,
2013-05-07 10:12:00,67.8,52.0,30.20,WNW,292,2.0,5.0,57,0.00,,,0.00,Weather View 32 v70,2013-05-07 14:12:00,
2013-05-07 10:17:00,67.6,53.6,30.20,WNW,292,4.0,5.0,61,0.00,,,0.00,Weather View 32 v70,2013-05-07 14:17:00,
2013-05-07 10:22:00,68.1,53.2,30.20,WNW,292,1.0,5.0,59,0.00,,,0.00,Weather View 32 v70,2013-05-07 14:22:00,
2013-05-07 10:27:00,68.0,51.2,30.20,NW,315,1.0,5.0,55,0.00,,,0.00,Weather View 32 v70,2013-05-07 14:27:00,
2013-05-07 10:32:00,68.1,52.2,30.20,WNW,292,2.0,5.0,57,0.00,,,0.00,Weather View 32 v70,2013-05-07 14:32:00,
2013-05-07 10:37:00,68.6,53.7,30.21,WNW,292,1.0,5.0,59,0.00,,,0.00,Weather View 32 v70,2013-05-07 14:37:00,
2013-05-07 10:42:00,68.4,53.5,30.21,WNW,292,3.0,5.0,59,0.00,,,0.00,Weather View 32 v70,2013-05-07 14:42:00,
2013-05-07 10:47:00,68.3,52.9,30.21,WNW,292,4.0,5.0,58,0.00,,,0.00,Weather View 32 v70,2013-05-07 14:47:00,
2013-05-07 10:52:00,67.9,52.1,30.20,WNW,292,4.0,5.0,57,0.00,,,0.00,Weather View 32 v70,2013-05-07 14:52:00,
2013-05-07 10:57:00,68.1,52.7,30.20,WNW,292,2.0,7.0,58,0.00,,,0.00,Weather View 32 v70,2013-05-07 14:57:00,
2013-05-07 11:02:00,68.1,52.7,30.20,WNW,292,2.0,7.0,58,0.00,,,0.00,Weather View 32 v70,2013-05-07 15:02:00,
2013-05-07 11:07:00,68.3,54.7,30.20,NW,315,2.0,7.0,62,0.00,,,0.00,Weather View 32 v70,2013-05-07 15:07:00,
2013-05-07 11:12:00,68.9,52.5,30.20,NE,45,2.0,7.0,56,0.00,,,0.00,Weather View 32 v70,2013-05-07 15:12:00,
2013-05-07 11:17:00,69.3,54.8,30.20,NW,315,2.0,7.0,60,0.00,,,0.00,Weather View 32 v70,2013-05-07 15:17:00,
2013-05-07 11:22:00,70.4,55.8,30.21,NNW,337,2.0,7.0,60,0.00,,,0.00,Weather View 32 v70,2013-05-07 15:22:00,
2013-05-07 11:27:00,71.2,55.1,30.20,NW,315,0.0,7.0,57,0.00,,,0.00,Weather View 32 v70,2013-05-07 15:27:00,
2013-05-07 11:32:00,71.6,55.0,30.21,WNW,292,2.0,7.0,56,0.00,,,0.00,Weather View 32 v70,2013-05-07 15:32:00,
2013-05-07 11:37:00,71.8,56.2,30.21,NNW,337,2.0,7.0,58,0.00,,,0.00,Weather View 32 v70,2013-05-07 15:37:00,
2013-05-07 11:42:00,72.4,57.2,30.20,NE,45,2.0,7.0,59,0.00,,,0.00,Weather View 32 v70,2013-05-07 15:42:00,
2013-05-07 11:47:00,71.9,55.8,30.20,NE,45,1.0,8.0,57,0.00,,,0.00,Weather View 32 v70,2013-05-07 15:47:00,
2013-05-07 11:52:00,72.2,56.1,30.20,NE,45,8.0,8.0,57,0.00,,,0.00,Weather View 32 v70,2013-05-07 15:52:00,
2013-05-07 11:57:00,72.4,56.7,30.20,NE,45,4.0,9.0,58,0.00,,,0.00,Weather View 32 v70,2013-05-07 15:57:00,
2013-05-07 12:02:00,72.6,56.9,30.20,SE,135,4.0,9.0,58,0.00,,,0.00,Weather View 32 v70,2013-05-07 16:02:00,
2013-05-07 12:07:00,72.7,56.0,30.20,ENE,67,2.0,9.0,56,0.00,,,0.00,Weather View 32 v70,2013-05-07 16:07:00,
2013-05-07 12:12:00,72.9,55.7,30.20,ESE,112,3.0,9.0,55,0.00,,,0.00,Weather View 32 v70,2013-05-07 16:12:00,
2013-05-07 12:18:00,73.5,56.8,30.20,NE,45,1.0,9.0,56,0.00,,,0.00,Weather View 32 v70,2013-05-07 16:18:00,
2013-05-07 12:23:00,73.7,56.5,30.20,NE,45,4.0,9.0,55,0.00,,,0.00,Weather View 32 v70,2013-05-07 16:23:00,
2013-05-07 12:28:00,72.8,55.6,30.20,NNE,22,4.0,11.0,55,0.00,,,0.00,Weather View 32 v70,2013-05-07 16:28:00,
2013-05-07 12:33:00,73.4,55.2,30.19,NE,45,6.0,11.0,53,0.00,,,0.00,Weather View 32 v70,2013-05-07 16:33:00,
2013-05-07 12:38:00,73.1,55.4,30.19,NNE,22,6.0,11.0,54,0.00,,,0.00,Weather View 32 v70,2013-05-07 16:38:00,
2013-05-07 12:43:00,73.5,56.3,30.19,SE,135,2.0,11.0,55,0.00,,,0.00,Weather View 32 v70,2013-05-07 16:43:00,
2013-05-07 12:48:00,74.1,57.3,30.19,NE,45,3.0,11.0,56,0.00,,,0.00,Weather View 32 v70,2013-05-07 16:48:00,
2013-05-07 12:53:00,73.7,58.4,30.18,NE,45,6.0,12.0,59,0.00,,,0.00,Weather View 32 v70,2013-05-07 16:53:00,
2013-05-07 12:58:00,73.5,56.3,30.18,NE,45,2.0,12.0,55,0.00,,,0.00,Weather View 32 v70,2013-05-07 16:58:00,
2013-05-07 13:03:00,74.7,57.9,30.19,South,180,1.0,12.0,56,0.00,,,0.00,Weather View 32 v70,2013-05-07 17:03:00,
2013-05-07 13:08:00,74.7,57.4,30.18,North,360,2.0,12.0,55,0.00,,,0.00,Weather View 32 v70,2013-05-07 17:08:00,
2013-05-07 13:13:00,75.5,57.1,30.19,ENE,67,6.0,12.0,53,0.00,,,0.00,Weather View 32 v70,2013-05-07 17:13:00,
2013-05-07 13:18:00,75.1,57.8,30.18,ENE,67,2.0,12.0,55,0.00,,,0.00,Weather View 32 v70,2013-05-07 17:18:00,
2013-05-07 13:23:00,74.9,57.6,30.18,ENE,67,2.0,12.0,55,0.00,,,0.00,Weather View 32 v70,2013-05-07 17:23:00,
2013-05-07 13:28:00,75.1,57.8,30.18,ENE,67,2.0,12.0,55,0.00,,,0.00,Weather View 32 v70,2013-05-07 17:28:00,
2013-05-07 13:33:00,75.2,57.4,30.18,WNW,292,1.0,12.0,54,0.00,,,0.00,Weather View 32 v70,2013-05-07 17:33:00,
2013-05-07 13:38:00,75.5,58.1,30.18,East,90,2.0,12.0,55,0.00,,,0.00,Weather View 32 v70,2013-05-07 17:38:00,
2013-05-07 13:43:00,75.8,57.9,30.18,WSW,247,0.0,12.0,54,0.00,,,0.00,Weather View 32 v70,2013-05-07 17:43:00,
2013-05-07 13:48:00,75.9,59.0,30.18,WNW,292,4.0,12.0,56,0.00,,,0.00,Weather View 32 v70,2013-05-07 17:48:00,
2013-05-07 13:53:00,75.3,53.0,30.17,WNW,292,2.0,11.0,46,0.00,,,0.00,Weather View 32 v70,2013-05-07 17:53:00,
2013-05-07 13:58:00,75.8,52.3,30.17,NNE,22,1.0,8.0,44,0.00,,,0.00,Weather View 32 v70,2013-05-07 17:58:00,
2013-05-07 14:03:00,75.5,58.1,30.17,South,180,0.0,11.0,55,0.00,,,0.00,Weather View 32 v70,2013-05-07 18:03:00,
2013-05-07 14:08:00,75.4,48.0,30.17,NE,45,2.0,11.0,38,0.00,,,0.00,Weather View 32 v70,2013-05-07 18:08:00,
2013-05-07 14:13:00,74.8,50.7,30.17,NNE,22,2.0,11.0,43,0.00,,,0.00,Weather View 32 v70,2013-05-07 18:13:00,
2013-05-07 14:18:00,74.7,51.3,30.17,ENE,67,2.0,11.0,44,0.00,,,0.00,Weather View 32 v70,2013-05-07 18:18:00,
2013-05-07 14:23:00,74.3,46.3,30.16,ENE,67,4.0,11.0,37,0.00,,,0.00,Weather View 32 v70,2013-05-07 18:23:00,
2013-05-07 14:28:00,74.8,50.7,30.16,WSW,247,0.0,11.0,43,0.00,,,0.00,Weather View 32 v70,2013-05-07 18:28:00,
2013-05-07 14:33:00,76.2,48.7,30.16,NNW,337,0.0,11.0,38,0.00,,,0.00,Weather View 32 v70,2013-05-07 18:33:00,
2013-05-07 14:38:00,76.5,51.6,30.16,WSW,247,1.0,11.0,42,0.00,,,0.00,Weather View 32 v70,2013-05-07 18:38:00,
2013-05-07 14:43:00,76.3,50.8,30.16,NE,45,2.0,11.0,41,0.00,,,0.00,Weather View 32 v70,2013-05-07 18:43:00,
2013-05-07 14:48:00,76.2,49.4,30.16,WNW,292,6.0,11.0,39,0.00,,,0.00,Weather View 32 v70,2013-05-07 18:48:00,
2013-05-07 14:53:00,76.2,57.2,30.16,ENE,67,2.0,11.0,52,0.00,,,0.00,Weather View 32 v70,2013-05-07 18:53:00,
2013-05-07 14:58:00,76.9,49.3,30.16,SSE,157,1.0,11.0,38,0.00,,,0.00,Weather View 32 v70,2013-05-07 18:58:00,
2013-05-07 15:03:00,77.3,53.6,30.16,WNW,292,2.0,11.0,44,0.00,,,0.00,Weather View 32 v70,2013-05-07 19:03:00,
2013-05-07 15:08:00,76.8,49.2,30.15,WNW,292,2.0,11.0,38,0.00,,,0.00,Weather View 32 v70,2013-05-07 19:08:00,
2013-05-07 15:13:00,77.0,50.8,30.16,ENE,67,2.0,11.0,40,0.00,,,0.00,Weather View 32 v70,2013-05-07 19:13:00,
2013-05-07 15:18:00,76.7,47.7,30.15,North,360,2.0,11.0,36,0.00,,,0.00,Weather View 32 v70,2013-05-07 19:18:00,
2013-05-07 15:23:00,77.4,51.8,30.15,NW,315,4.0,8.0,41,0.00,,,0.00,Weather View 32 v70,2013-05-07 19:23:00,
2013-05-07 15:28:00,77.3,51.0,30.15,ENE,67,3.0,7.0,40,0.00,,,0.00,Weather View 32 v70,2013-05-07 19:28:00,
2013-05-07 15:33:00,77.1,50.2,30.15,North,360,2.0,7.0,39,0.00,,,0.00,Weather View 32 v70,2013-05-07 19:33:00,
2013-05-07 15:38:00,75.8,49.7,30.15,SE,135,6.0,10.0,40,0.00,,,0.00,Weather View 32 v70,2013-05-07 19:38:00,
2013-05-07 15:43:00,76.5,50.3,30.15,WNW,292,1.0,10.0,40,0.00,,,0.00,Weather View 32 v70,2013-05-07 19:43:00,
2013-05-07 15:48:00,76.8,50.6,30.15,WSW,247,0.0,10.0,40,0.00,,,0.00,Weather View 32 v70,2013-05-07 19:48:00,
2013-05-07 15:53:00,76.9,51.3,30.15,ENE,67,3.0,10.0,41,0.00,,,0.00,Weather View 32 v70,2013-05-07 19:53:00,
2013-05-07 15:58:00,77.2,51.6,30.15,SW,225,0.0,10.0,41,0.00,,,0.00,Weather View 32 v70,2013-05-07 19:58:00,
2013-05-07 16:03:00,77.6,51.3,30.15,NNW,337,1.0,10.0,40,0.00,,,0.00,Weather View 32 v70,2013-05-07 20:03:00,
2013-05-07 16:08:00,77.3,51.0,30.15,North,360,2.0,10.0,40,0.00,,,0.00,Weather View 32 v70,2013-05-07 20:08:00,
2013-05-07 16:13:00,77.6,49.9,30.15,WNW,292,2.0,10.0,38,0.00,,,0.00,Weather View 32 v70,2013-05-07 20:13:00,
2013-05-07 16:18:00,77.6,51.3,30.15,ESE,112,4.0,10.0,40,0.00,,,0.00,Weather View 32 v70,2013-05-07 20:18:00,
2013-05-07 16:23:00,77.4,50.4,30.15,SE,135,1.0,10.0,39,0.00,,,0.00,Weather View 32 v70,2013-05-07 20:23:00,
2013-05-07 16:28:00,77.8,50.8,30.15,SSE,157,0.0,10.0,39,0.00,,,0.00,Weather View 32 v70,2013-05-07 20:28:00,
2013-05-07 16:33:00,77.4,49.7,30.15,East,90,2.0,10.0,38,0.00,,,0.00,Weather View 32 v70,2013-05-07 20:33:00,
2013-05-07 16:38:00,76.7,49.1,30.15,NE,45,6.0,9.0,38,0.00,,,0.00,Weather View 32 v70,2013-05-07 20:38:00,
2013-05-07 16:43:00,76.3,49.4,30.15,East,90,1.0,7.0,39,0.00,,,0.00,Weather View 32 v70,2013-05-07 20:43:00,
2013-05-07 16:48:00,76.3,50.1,30.14,NE,45,2.0,7.0,40,0.00,,,0.00,Weather View 32 v70,2013-05-07 20:48:00,
2013-05-07 16:53:00,76.7,49.1,30.15,WSW,247,1.0,7.0,38,0.00,,,0.00,Weather View 32 v70,2013-05-07 20:53:00,
2013-05-07 16:58:00,77.1,50.2,30.15,SE,135,0.0,7.0,39,0.00,,,0.00,Weather View 32 v70,2013-05-07 20:58:00,
2013-05-07 17:03:00,77.2,50.9,30.15,WSW,247,2.0,7.0,40,0.00,,,0.00,Weather View 32 v70,2013-05-07 21:03:00,
2013-05-07 17:08:00,77.3,51.0,30.15,SE,135,0.0,7.0,40,0.00,,,0.00,Weather View 32 v70,2013-05-07 21:08:00,
2013-05-07 17:13:00,77.4,51.1,30.15,ENE,67,4.0,7.0,40,0.00,,,0.00,Weather View 32 v70,2013-05-07 21:13:00,
2013-05-07 17:18:00,76.6,51.1,30.15,East,90,1.0,7.0,41,0.00,,,0.00,Weather View 32 v70,2013-05-07 21:18:00,
2013-05-07 17:23:00,76.8,51.2,30.14,West,270,0.0,7.0,41,0.00,,,0.00,Weather View 32 v70,2013-05-07 21:23:00,
2013-05-07 17:28:00,75.8,50.3,30.14,ENE,67,0.0,7.0,41,0.00,,,0.00,Weather View 32 v70,2013-05-07 21:28:00,
2013-05-07 17:33:00,75.8,51.0,30.14,SE,135,1.0,7.0,42,0.00,,,0.00,Weather View 32 v70,2013-05-07 21:33:00,
2013-05-07 17:38:00,75.9,51.7,30.14,East,90,1.0,7.0,43,0.00,,,0.00,Weather View 32 v70,2013-05-07 21:38:00,
2013-05-07 17:43:00,75.5,52.0,30.14,NNE,22,1.0,7.0,44,0.00,,,0.00,Weather View 32 v70,2013-05-07 21:43:00,
2013-05-07 17:48:00,75.6,52.1,30.14,NW,315,1.0,7.0,44,0.00,,,0.00,Weather View 32 v70,2013-05-07 21:48:00,
2013-05-07 17:53:00,75.6,49.5,30.14,NNE,22,0.0,7.0,40,0.00,,,0.00,Weather View 32 v70,2013-05-07 21:53:00,
2013-05-07 17:58:00,75.7,52.8,30.14,East,90,1.0,7.0,45,0.00,,,0.00,Weather View 32 v70,2013-05-07 21:58:00,
2013-05-07 18:03:00,75.8,52.9,30.14,West,270,2.0,7.0,45,0.00,,,0.00,Weather View 32 v70,2013-05-07 22:03:00,
2013-05-07 18:08:00,75.8,52.3,30.14,North,360,0.0,7.0,44,0.00,,,0.00,Weather View 32 v70,2013-05-07 22:08:00,
2013-05-07 18:13:00,75.1,52.8,30.14,NE,45,1.0,7.0,46,0.00,,,0.00,Weather View 32 v70,2013-05-07 22:13:00,
2013-05-07 18:18:00,74.7,53.1,30.14,NNE,22,2.0,7.0,47,0.00,,,0.00,Weather View 32 v70,2013-05-07 22:18:00,
2013-05-07 18:23:00,73.8,55.5,30.14,ENE,67,2.0,7.0,53,0.00,,,0.00,Weather View 32 v70,2013-05-07 22:23:00,
2013-05-07 18:28:00,73.6,55.9,30.14,SE,135,2.0,7.0,54,0.00,,,0.00,Weather View 32 v70,2013-05-07 22:28:00,
2013-05-07 18:33:00,73.2,56.0,30.14,South,180,0.0,7.0,55,0.00,,,0.00,Weather View 32 v70,2013-05-07 22:33:00,
2013-05-07 18:38:00,72.7,52.9,30.14,ENE,67,2.0,7.0,50,0.00,,,0.00,Weather View 32 v70,2013-05-07 22:38:00,
2013-05-07 18:43:00,71.9,53.3,30.14,East,90,0.0,7.0,52,0.00,,,0.00,Weather View 32 v70,2013-05-07 22:43:00,
2013-05-07 18:48:00,71.4,55.3,30.14,NE,45,2.0,8.0,57,0.00,,,0.00,Weather View 32 v70,2013-05-07 22:48:00,
2013-05-07 18:53:00,71.1,55.5,30.14,ENE,67,0.0,8.0,58,0.00,,,0.00,Weather View 32 v70,2013-05-07 22:53:00,
2013-05-07 18:58:00,70.9,53.9,30.14,NE,45,3.0,8.0,55,0.00,,,0.00,Weather View 32 v70,2013-05-07 22:58:00,
2013-05-07 19:03:00,70.6,54.1,30.14,South,180,0.0,8.0,56,0.00,,,0.00,Weather View 32 v70,2013-05-07 23:03:00,
2013-05-07 19:08:00,70.4,54.4,30.14,East,90,0.0,8.0,57,0.00,,,0.00,Weather View 32 v70,2013-05-07 23:08:00,
2013-05-07 19:13:00,70.1,54.1,30.14,SE,135,1.0,8.0,57,0.00,,,0.00,Weather View 32 v70,2013-05-07 23:13:00,
2013-05-07 19:18:00,69.9,53.9,30.14,ENE,67,0.0,8.0,57,0.00,,,0.00,Weather View 32 v70,2013-05-07 23:18:00,
2013-05-07 19:23:00,69.7,55.2,30.14,SSE,157,1.0,8.0,60,0.00,,,0.00,Weather View 32 v70,2013-05-07 23:23:00,
2013-05-07 19:28:00,69.3,54.8,30.15,East,90,0.0,8.0,60,0.00,,,0.00,Weather View 32 v70,2013-05-07 23:28:00,
2013-05-07 19:33:00,68.7,52.8,30.15,ENE,67,1.0,8.0,57,0.00,,,0.00,Weather View 32 v70,2013-05-07 23:33:00,
2013-05-07 19:38:00,68.6,53.2,30.15,East,90,0.0,8.0,58,0.00,,,0.00,Weather View 32 v70,2013-05-07 23:38:00,
2013-05-07 19:43:00,67.9,54.8,30.15,East,90,0.0,8.0,63,0.00,,,0.00,Weather View 32 v70,2013-05-07 23:43:00,
2013-05-07 19:48:00,67.6,52.7,30.15,East,90,0.0,7.0,59,0.00,,,0.00,Weather View 32 v70,2013-05-07 23:48:00,
2013-05-07 19:53:00,67.1,53.2,30.15,SE,135,0.0,7.0,61,0.00,,,0.00,Weather View 32 v70,2013-05-07 23:53:00,
2013-05-07 19:58:00,66.7,52.3,30.15,SE,135,0.0,7.0,60,0.00,,,0.00,Weather View 32 v70,2013-05-07 23:58:00,
2013-05-07 20:03:00,66.3,52.4,30.14,SE,135,0.0,4.0,61,0.00,,,0.00,Weather View 32 v70,2013-05-08 00:03:00,
2013-05-07 20:08:00,65.8,52.8,30.14,East,90,1.0,4.0,63,0.00,,,0.00,Weather View 32 v70,2013-05-08 00:08:00,
2013-05-07 20:13:00,65.7,54.0,30.15,SE,135,2.0,4.0,66,0.00,,,0.00,Weather View 32 v70,2013-05-08 00:13:00,
2013-05-07 20:18:00,65.9,54.6,30.15,ENE,67,0.0,7.0,67,0.00,,,0.00,Weather View 32 v70,2013-05-08 00:18:00,
2013-05-07 20:23:00,65.9,53.8,30.15,ESE,112,0.0,8.0,65,0.00,,,0.00,Weather View 32 v70,2013-05-08 00:23:00,
2013-05-07 20:28:00,65.7,54.0,30.15,SE,135,0.0,8.0,66,0.00,,,0.00,Weather View 32 v70,2013-05-08 00:28:00,
2013-05-07 20:33:00,65.4,54.5,30.15,SE,135,2.0,8.0,68,0.00,,,0.00,Weather View 32 v70,2013-05-08 00:33:00,
2013-05-07 20:38:00,65.2,56.3,30.15,NNW,337,0.0,8.0,73,0.00,,,0.00,Weather View 32 v70,2013-05-08 00:38:00,
2013-05-07 20:43:00,64.8,55.9,30.16,NNW,337,0.0,8.0,73,0.00,,,0.00,Weather View 32 v70,2013-05-08 00:43:00,
2013-05-07 20:48:00,64.7,56.6,30.16,East,90,1.0,8.0,75,0.00,,,0.00,Weather View 32 v70,2013-05-08 00:48:00,
2013-05-07 20:53:00,64.5,56.0,30.16,East,90,1.0,8.0,74,0.00,,,0.00,Weather View 32 v70,2013-05-08 00:53:00,
2013-05-07 20:58:00,64.1,56.4,30.16,East,90,1.0,8.0,76,0.00,,,0.00,Weather View 32 v70,2013-05-08 00:58:00,
2013-05-07 21:03:00,63.8,57.5,30.16,ESE,112,0.0,8.0,80,0.00,,,0.00,Weather View 32 v70,2013-05-08 01:03:00,
2013-05-07 21:08:00,63.6,58.3,30.16,NE,45,0.0,8.0,83,0.00,,,0.00,Weather View 32 v70,2013-05-08 01:08:00,
2013-05-07 21:13:00,63.3,58.4,30.17,WNW,292,1.0,8.0,84,0.00,,,0.00,Weather View 32 v70,2013-05-08 01:13:00,
2013-05-07 21:18:00,63.3,58.7,30.17,SSW,202,0.0,8.0,85,0.00,,,0.00,Weather View 32 v70,2013-05-08 01:18:00,
2013-05-07 21:23:00,63.3,57.0,30.17,SSE,157,0.0,4.0,80,0.00,,,0.00,Weather View 32 v70,2013-05-08 01:23:00,
2013-05-07 21:28:00,63.2,58.3,30.17,East,90,0.0,4.0,84,0.00,,,0.00,Weather View 32 v70,2013-05-08 01:28:00,
2013-05-07 21:33:00,63.2,57.9,30.17,ESE,112,0.0,4.0,83,0.00,,,0.00,Weather View 32 v70,2013-05-08 01:33:00,
2013-05-07 21:38:00,62.9,58.6,30.17,WSW,247,2.0,4.0,86,0.00,,,0.00,Weather View 32 v70,2013-05-08 01:38:00,
2013-05-07 21:43:00,62.8,58.5,30.17,NNW,337,2.0,4.0,86,0.00,,,0.00,Weather View 32 v70,2013-05-08 01:43:00,
2013-05-07 21:48:00,62.7,58.4,30.17,SSW,202,0.0,4.0,86,0.00,,,0.00,Weather View 32 v70,2013-05-08 01:48:00,
2013-05-07 21:53:00,62.6,56.7,30.17,NE,45,0.0,4.0,81,0.00,,,0.00,Weather View 32 v70,2013-05-08 01:53:00,
2013-05-07 21:58:00,62.3,57.7,30.17,NE,45,0.0,4.0,85,0.00,,,0.00,Weather View 32 v70,2013-05-08 01:58:00,
2013-05-07 22:03:00,61.9,58.0,30.17,NNW,337,1.0,4.0,87,0.00,,,0.00,Weather View 32 v70,2013-05-08 02:03:00,
2013-05-07 22:08:00,61.6,58.3,30.17,SW,225,1.0,4.0,89,0.00,,,0.00,Weather View 32 v70,2013-05-08 02:08:00,
2013-05-07 22:14:00,61.7,58.1,30.17,NE,45,0.0,4.0,88,0.00,,,0.00,Weather View 32 v70,2013-05-08 02:14:00,
2013-05-07 22:19:00,61.5,58.5,30.17,NNE,22,1.0,4.0,90,0.00,,,0.00,Weather View 32 v70,2013-05-08 02:19:00,
2013-05-07 22:24:00,61.2,58.5,30.17,NNE,22,0.0,4.0,91,0.00,,,0.00,Weather View 32 v70,2013-05-08 02:24:00,
2013-05-07 22:29:00,61.3,58.3,30.17,WSW,247,1.0,4.0,90,0.00,,,0.00,Weather View 32 v70,2013-05-08 02:29:00,
2013-05-07 22:34:00,61.2,58.8,30.17,West,270,2.0,4.0,92,0.00,,,0.00,Weather View 32 v70,2013-05-08 02:34:00,
2013-05-07 22:39:00,61.3,57.7,30.17,SSE,157,0.0,4.0,88,0.00,,,0.00,Weather View 32 v70,2013-05-08 02:39:00,
2013-05-07 22:44:00,61.1,58.8,30.17,NNE,22,0.0,4.0,92,0.00,,,0.00,Weather View 32 v70,2013-05-08 02:44:00,
2013-05-07 22:49:00,60.8,59.1,30.17,NNE,22,0.0,4.0,94,0.00,,,0.00,Weather View 32 v70,2013-05-08 02:49:00,
2013-05-07 22:54:00,60.6,58.9,30.17,South,180,0.0,4.0,94,0.00,,,0.00,Weather View 32 v70,2013-05-08 02:54:00,
2013-05-07 22:59:00,60.5,58.5,30.17,SSW,202,0.0,4.0,93,0.00,,,0.00,Weather View 32 v70,2013-05-08 02:59:00,
2013-05-07 23:04:00,60.2,58.5,30.17,ENE,67,0.0,4.0,94,0.00,,,0.00,Weather View 32 v70,2013-05-08 03:04:00,
2013-05-07 23:09:00,59.8,58.9,30.17,NNE,22,0.0,4.0,97,0.00,,,0.00,Weather View 32 v70,2013-05-08 03:09:00,
2013-05-07 23:14:00,59.8,59.2,30.17,North,360,0.0,4.0,98,0.00,,,0.00,Weather View 32 v70,2013-05-08 03:14:00,
2013-05-07 23:19:00,59.8,59.2,30.17,WSW,247,0.0,4.0,98,0.00,,,0.00,Weather View 32 v70,2013-05-08 03:19:00,
2013-05-07 23:24:00,59.8,58.9,30.17,SE,135,2.0,4.0,97,0.00,,,0.00,Weather View 32 v70,2013-05-08 03:24:00,
2013-05-07 23:29:00,59.6,59.0,30.17,NW,315,0.0,4.0,98,0.00,,,0.00,Weather View 32 v70,2013-05-08 03:29:00,
2013-05-07 23:34:00,59.6,58.7,30.17,South,180,1.0,4.0,97,0.00,,,0.00,Weather View 32 v70,2013-05-08 03:34:00,
2013-05-07 23:39:00,59.4,58.8,30.17,WSW,247,1.0,4.0,98,0.00,,,0.00,Weather View 32 v70,2013-05-08 03:39:00,
2013-05-07 23:44:00,59.2,58.6,30.17,South,180,0.0,4.0,98,0.00,,,0.00,Weather View 32 v70,2013-05-08 03:44:00,
2013-05-07 23:49:00,59.1,58.5,30.17,NNW,337,0.0,4.0,98,0.00,,,0.00,Weather View 32 v70,2013-05-08 03:49:00,
2013-05-07 23:54:00,58.9,58.3,30.17,WSW,247,0.0,4.0,98,0.00,,,0.00,Weather View 32 v70,2013-05-08 03:54:00,
2013-05-07 23:59:00,59.0,58.4,30.17,SSE,157,2.0,4.0,98,0.00,,,0.00,Weather View 32 v70,2013-05-08 03:59:00,